createdAt,value
2022-10-09T00:00:50.215Z,102230.13
2022-10-09T00:03:18.051Z,102231.38
2022-10-09T00:05:45.967Z,102226.44
2022-10-09T00:08:13.033Z,102231.53
2022-10-09T00:10:43.869Z,102241.53
2022-10-09T00:13:11.151Z,102243.94
2022-10-09T00:15:39.895Z,102246.38
2022-10-09T00:18:07.825Z,102247.88
2022-10-09T00:20:39.663Z,102248.44
2022-10-09T00:23:07.251Z,102250.16
2022-10-09T00:25:36.023Z,102253.75
2022-10-09T00:28:04.689Z,102267.63
2022-10-09T00:30:31.630Z,102264.78
2022-10-09T00:32:58.390Z,102259.81
2022-10-09T00:35:25.010Z,102262.19
2022-10-09T00:37:51.531Z,102259.69
2022-10-09T00:40:18.165Z,102267.56
2022-10-09T00:42:45.871Z,102263.09
2022-10-09T00:45:20.950Z,102264.59
2022-10-09T00:47:52.104Z,102273.03
2022-10-09T00:50:30.937Z,102261.25
2022-10-09T00:53:00.130Z,102263.97
2022-10-09T00:55:28.808Z,102259.66
2022-10-09T00:57:57.578Z,102259.66
2022-10-09T01:00:24.302Z,102262.38
2022-10-09T01:02:51.275Z,102265.56
2022-10-09T01:05:19.154Z,102269.03
2022-10-09T01:08:09.336Z,102270.84
2022-10-09T01:10:47.664Z,102273.78
2022-10-09T01:13:25.077Z,102262.47
2022-10-09T01:16:06.328Z,102267.56
2022-10-09T01:18:51.280Z,102263.97
2022-10-09T01:21:25.927Z,102270.66
2022-10-09T01:24:14.348Z,102271.81
2022-10-09T01:27:05.608Z,102273.88
2022-10-09T01:29:36.857Z,102263.28
2022-10-09T01:32:05.920Z,102263.44
2022-10-09T01:34:33.794Z,102264.47
2022-10-09T01:37:01.337Z,102263.78
2022-10-09T01:39:29.720Z,102263.63
2022-10-09T01:41:57.559Z,102273.09
2022-10-09T01:44:30.624Z,102257.41
2022-10-09T01:46:57.722Z,102263.72
2022-10-09T01:49:42.881Z,102261.47
2022-10-09T01:52:41.323Z,102255.91
2022-10-09T01:55:30.722Z,102259.31
2022-10-09T01:58:09.673Z,102265.22
2022-10-09T02:00:40.034Z,102263.34
2022-10-09T02:03:10.633Z,102266.44
2022-10-09T02:05:40.170Z,102259.13
2022-10-09T02:08:07.603Z,102265.31
2022-10-09T02:10:35.191Z,102263.00
2022-10-09T02:13:01.864Z,102269.16
2022-10-09T02:15:42.567Z,102270.31
2022-10-09T02:18:13.746Z,102274.03
2022-10-09T02:20:45.230Z,102278.25
2022-10-09T02:23:13.826Z,102275.22
2022-10-09T02:25:41.069Z,102273.84
2022-10-09T02:28:08.328Z,102278.13
2022-10-09T02:31:04.867Z,102282.66
2022-10-09T02:33:33.357Z,102284.88
2022-10-09T02:36:00.954Z,102280.94
2022-10-09T02:38:27.622Z,102280.75
2022-10-09T02:41:00.974Z,102273.06
2022-10-09T02:43:28.438Z,102284.44
2022-10-09T02:45:55.295Z,102288.06
2022-10-09T02:48:21.924Z,102281.00
2022-10-09T02:50:48.491Z,102288.59
2022-10-09T02:53:15.019Z,102292.00
2022-10-09T02:55:41.948Z,102289.34
2022-10-09T02:58:08.490Z,102288.31
2022-10-09T03:00:35.125Z,102284.03
2022-10-09T03:03:01.723Z,102296.00
2022-10-09T03:05:28.450Z,102290.25
2022-10-09T03:07:55.170Z,102287.34
2022-10-09T03:10:22.000Z,102290.66
2022-10-09T03:12:48.805Z,102299.53
2022-10-09T03:15:16.162Z,102293.72
2022-10-09T03:17:42.834Z,102299.66
2022-10-09T03:20:09.949Z,102303.66
2022-10-09T03:22:36.635Z,102297.72
2022-10-09T03:25:03.339Z,102305.66
2022-10-09T03:27:30.954Z,102303.03
2022-10-09T03:29:58.685Z,102307.25
2022-10-09T03:32:25.600Z,102306.94
2022-10-09T03:34:52.302Z,102308.75
2022-10-09T03:37:18.882Z,102313.19
2022-10-09T03:39:45.566Z,102314.66
2022-10-09T03:42:12.093Z,102321.13
2022-10-09T03:44:38.677Z,102324.34
2022-10-09T03:47:06.051Z,102326.56
2022-10-09T03:49:32.794Z,102314.50
2022-10-09T03:51:59.411Z,102315.75
2022-10-09T03:54:26.125Z,102322.06
2022-10-09T03:56:52.710Z,102326.75
2022-10-09T03:59:19.379Z,102322.69
2022-10-09T04:01:46.007Z,102326.66
2022-10-09T04:04:12.691Z,102321.19
2022-10-09T04:06:39.303Z,102336.63
2022-10-09T04:09:06.118Z,102331.94
2022-10-09T04:11:32.847Z,102339.88
2022-10-09T04:14:00.197Z,102333.47
2022-10-09T04:16:26.969Z,102338.72
2022-10-09T04:18:53.605Z,102341.94
2022-10-09T04:21:20.292Z,102339.41
2022-10-09T04:23:46.873Z,102343.13
2022-10-09T04:26:13.965Z,102340.75
2022-10-09T04:28:40.791Z,102339.06
2022-10-09T04:31:07.556Z,102338.06
2022-10-09T04:33:34.215Z,102336.34
2022-10-09T04:36:00.925Z,102331.09
2022-10-09T04:38:27.525Z,102332.28
2022-10-09T04:40:56.832Z,102336.69
2022-10-09T04:43:23.544Z,102332.97
2022-10-09T04:45:50.346Z,102337.19
2022-10-09T04:48:17.058Z,102334.00
2022-10-09T04:50:43.739Z,102331.13
2022-10-09T04:53:10.502Z,102331.63
2022-10-09T04:55:44.030Z,102329.25
2022-10-09T04:58:12.249Z,102336.69
2022-10-09T05:00:43.469Z,102327.38
2022-10-09T05:03:11.619Z,102332.13
2022-10-09T05:05:38.267Z,102332.97
2022-10-09T05:08:05.383Z,102326.91
2022-10-09T05:10:33.195Z,102331.78
2022-10-09T05:13:00.451Z,102321.31
2022-10-09T05:15:27.284Z,102325.53
2022-10-09T05:17:53.919Z,102335.34
2022-10-09T05:20:20.768Z,102326.91
2022-10-09T05:22:48.096Z,102333.97
2022-10-09T05:25:15.087Z,102338.41
2022-10-09T05:27:41.805Z,102333.66
2022-10-09T05:30:09.353Z,102335.66
2022-10-09T05:32:36.203Z,102340.38
2022-10-09T05:35:03.123Z,102340.38
2022-10-09T05:37:29.982Z,102341.72
2022-10-09T05:39:56.551Z,102352.91
2022-10-09T05:42:23.262Z,102344.44
2022-10-09T05:44:49.947Z,102350.03
2022-10-09T05:47:18.294Z,102343.44
2022-10-09T05:49:44.876Z,102355.63
2022-10-09T05:52:11.562Z,102345.63
2022-10-09T05:54:38.225Z,102347.50
2022-10-09T05:57:05.199Z,102343.59
2022-10-09T05:59:31.761Z,102350.53
2022-10-09T06:01:59.344Z,102354.25
2022-10-09T06:04:26.362Z,102352.22
2022-10-09T06:06:53.982Z,102338.03
2022-10-09T06:09:23.478Z,102343.97
2022-10-09T06:11:51.327Z,102344.66
2022-10-09T06:14:20.898Z,102349.25
2022-10-09T06:16:47.589Z,102357.00
2022-10-09T06:19:17.018Z,102359.38
2022-10-09T06:21:44.531Z,102363.44
2022-10-09T06:24:28.270Z,102360.03
2022-10-09T06:26:55.395Z,102361.69
2022-10-09T06:29:22.273Z,102370.53
2022-10-09T06:31:48.903Z,102367.75
2022-10-09T06:34:15.592Z,102364.66
2022-10-09T06:36:42.358Z,102373.66
2022-10-09T06:39:10.517Z,102372.00
2022-10-09T06:41:37.355Z,102375.06
2022-10-09T06:44:06.563Z,102380.75
2022-10-09T06:46:36.745Z,102381.00
2022-10-09T06:49:04.858Z,102386.53
2022-10-09T06:51:32.209Z,102383.66
2022-10-09T06:54:01.353Z,102383.41
2022-10-09T06:56:30.087Z,102382.59
2022-10-09T06:58:59.362Z,102390.00
2022-10-09T07:01:28.069Z,102390.78
2022-10-09T07:03:57.063Z,102390.06
2022-10-09T07:06:26.558Z,102387.56
2022-10-09T07:08:57.189Z,102388.97
2022-10-09T07:11:26.136Z,102383.66
2022-10-09T07:13:57.923Z,102384.75
2022-10-09T07:16:29.226Z,102394.91
2022-10-09T07:18:56.118Z,102394.16
2022-10-09T07:21:24.117Z,102394.94
2022-10-09T07:23:50.778Z,102396.09
2022-10-09T07:26:20.169Z,102395.72
2022-10-09T07:28:47.559Z,102398.22
2022-10-09T07:31:14.778Z,102391.28
2022-10-09T07:33:44.588Z,102396.44
2022-10-09T07:36:11.510Z,102408.34
2022-10-09T07:38:42.336Z,102406.66
2022-10-09T07:41:11.776Z,102409.25
2022-10-09T07:43:39.964Z,102403.00
2022-10-09T07:48:18.362Z,102409.31
2022-10-09T07:50:44.849Z,102412.47
2022-10-09T07:53:11.347Z,102417.31
2022-10-09T07:55:45.437Z,102415.41
2022-10-09T07:58:12.224Z,102420.25
2022-10-09T08:00:38.731Z,102413.00
2022-10-09T08:03:05.295Z,102415.72
2022-10-09T08:05:32.646Z,102416.56
2022-10-09T08:07:59.287Z,102420.97
2022-10-09T08:10:25.933Z,102417.03
2022-10-09T08:12:52.750Z,102419.88
2022-10-09T08:15:19.272Z,102423.56
2022-10-09T08:17:45.774Z,102425.56
2022-10-09T08:20:12.312Z,102426.13
2022-10-09T08:22:39.087Z,102430.47
2022-10-09T08:25:06.118Z,102427.19
2022-10-09T08:27:32.711Z,102434.06
2022-10-09T08:29:59.172Z,102437.06
2022-10-09T08:32:25.683Z,102435.97
2022-10-09T08:34:52.960Z,102432.50
2022-10-09T08:37:19.476Z,102434.50
2022-10-09T08:39:45.958Z,102433.75
2022-10-09T08:42:32.706Z,102424.84
2022-10-09T08:44:59.210Z,102428.47
2022-10-09T08:48:12.055Z,102437.59
2022-10-09T08:50:43.527Z,102437.28
2022-10-09T08:53:44.399Z,102434.66
2022-10-09T08:56:15.015Z,102425.69
2022-10-09T08:58:43.885Z,102433.97
2022-10-09T09:01:32.325Z,102432.16
2022-10-09T09:04:17.643Z,102433.72
2022-10-09T09:06:54.141Z,102432.97
2022-10-09T09:09:23.262Z,102433.91
2022-10-09T09:11:58.602Z,102441.09
2022-10-09T09:14:34.065Z,102431.50
2022-10-09T09:17:24.583Z,102433.25
2022-10-09T09:19:58.877Z,102434.16
2022-10-09T09:22:27.158Z,102439.28
2022-10-09T09:24:57.137Z,102434.34
2022-10-09T09:27:32.352Z,102428.16
2022-10-09T09:30:13.197Z,102448.03
2022-10-09T09:33:04.670Z,102439.75
2022-10-09T09:36:05.340Z,102435.41
2022-10-09T09:38:32.308Z,102434.22
2022-10-09T09:40:59.051Z,102431.13
2022-10-09T09:43:26.892Z,102432.84
2022-10-09T09:45:58.853Z,102428.28
2022-10-09T09:48:38.504Z,102427.91
2022-10-09T09:51:29.215Z,102428.31
2022-10-09T09:54:00.249Z,102435.56
2022-10-09T09:57:07.165Z,102427.81
2022-10-09T09:59:40.878Z,102424.06
2022-10-09T10:02:24.097Z,102416.94
2022-10-09T10:04:57.990Z,102422.00
2022-10-09T10:07:42.431Z,102418.22
2022-10-09T10:10:25.578Z,102417.25
2022-10-09T10:12:52.677Z,102412.59
2022-10-09T10:15:33.931Z,102415.31
2022-10-09T10:18:06.241Z,102423.94
2022-10-09T10:20:43.031Z,102410.44
2022-10-09T10:23:24.623Z,102412.09
2022-10-09T10:25:55.611Z,102415.44
2022-10-09T10:28:27.912Z,102412.47
2022-10-09T10:30:57.275Z,102410.28
2022-10-09T10:33:31.875Z,102410.63
2022-10-09T10:35:59.265Z,102408.44
2022-10-09T10:38:32.923Z,102405.06
2022-10-09T10:41:22.407Z,102405.88
2022-10-09T10:43:54.264Z,102405.16
2022-10-09T10:46:28.264Z,102415.88
2022-10-09T10:48:55.095Z,102400.09
2022-10-09T10:51:44.843Z,102409.75
2022-10-09T10:54:26.745Z,102395.16
2022-10-09T10:57:06.582Z,102407.50
2022-10-09T11:00:06.853Z,102399.81
2022-10-09T11:02:52.761Z,102396.56
2022-10-09T11:05:38.299Z,102396.25
2022-10-09T11:08:26.337Z,102392.31
2022-10-09T11:11:11.610Z,102396.81
2022-10-09T11:13:49.632Z,102396.78
2022-10-09T11:16:19.245Z,102391.88
2022-10-09T11:19:09.604Z,102384.09
2022-10-09T11:21:43.001Z,102388.53
2022-10-09T11:24:28.755Z,102388.03
2022-10-09T11:27:18.933Z,102383.28
2022-10-09T11:29:59.045Z,102381.78
2022-10-09T11:32:47.630Z,102374.00
2022-10-09T11:35:25.629Z,102373.34
2022-10-09T11:38:02.558Z,102366.31
2022-10-09T11:40:33.895Z,102370.25
2022-10-09T11:43:08.816Z,102364.53
2022-10-09T11:45:58.569Z,102360.47
2022-10-09T11:48:42.660Z,102358.22
2022-10-09T11:51:14.460Z,102362.41
2022-10-09T11:53:41.727Z,102356.47
2022-10-09T11:56:23.085Z,102350.00
2022-10-09T11:58:56.787Z,102344.03
2022-10-09T12:01:25.989Z,102350.13
2022-10-09T12:04:32.280Z,102343.56
2022-10-09T12:07:12.564Z,102335.44
2022-10-09T12:09:42.002Z,102324.88
2022-10-09T12:12:21.979Z,102325.47
2022-10-09T12:14:50.972Z,102328.03
2022-10-09T12:17:23.368Z,102326.94
2022-10-09T12:20:00.737Z,102319.53
2022-10-09T12:23:07.411Z,102324.91
2022-10-09T12:25:45.233Z,102320.41
2022-10-09T12:28:28.003Z,102317.16
2022-10-09T12:30:56.113Z,102309.28
2022-10-09T12:33:28.142Z,102310.00
2022-10-09T12:36:14.635Z,102307.13
2022-10-09T12:38:41.891Z,102301.25
2022-10-09T12:41:25.505Z,102308.22
2022-10-09T12:43:55.590Z,102298.75
2022-10-09T12:46:30.645Z,102303.19
2022-10-09T12:48:58.664Z,102295.25
2022-10-09T12:51:26.977Z,102300.28
2022-10-09T12:53:54.513Z,102291.53
2022-10-09T12:56:24.816Z,102282.81
2022-10-09T12:58:52.734Z,102272.97
2022-10-09T13:01:20.255Z,102272.63
2022-10-09T13:04:03.561Z,102271.06
2022-10-09T13:06:51.583Z,102267.25
2022-10-09T13:09:23.116Z,102270.94
2022-10-09T13:12:00.601Z,102263.13
2022-10-09T13:14:34.888Z,102262.63
2022-10-09T13:17:02.431Z,102259.31
2022-10-09T13:19:32.352Z,102261.00
2022-10-09T13:22:01.563Z,102253.19
2022-10-09T13:24:29.638Z,102255.13
2022-10-09T13:26:56.233Z,102251.91
2022-10-09T13:29:22.929Z,102243.66
2022-10-09T13:31:49.444Z,102242.56
2022-10-09T13:34:16.528Z,102236.34
2022-10-09T13:36:43.032Z,102230.00
2022-10-09T13:39:14.569Z,102227.50
2022-10-09T13:41:42.769Z,102231.34
2022-10-09T13:44:09.483Z,102225.47
2022-10-09T13:46:36.049Z,102224.41
2022-10-09T13:49:02.580Z,102216.63
2022-10-09T13:51:29.494Z,102212.19
2022-10-09T13:53:56.045Z,102209.44
2022-10-09T13:56:22.540Z,102202.03
2022-10-09T13:58:49.046Z,102191.28
2022-10-09T14:01:15.788Z,102192.72
2022-10-09T14:03:42.376Z,102197.97
2022-10-09T14:06:08.933Z,102197.47
2022-10-09T14:08:35.474Z,102197.59
2022-10-09T14:11:02.896Z,102183.34
2022-10-09T14:13:29.805Z,102189.69
2022-10-09T14:15:56.657Z,102190.41
2022-10-09T14:18:23.387Z,102175.69
2022-10-09T14:20:49.904Z,102173.97
2022-10-09T14:23:16.417Z,102173.84
2022-10-09T14:25:42.945Z,102168.59
2022-10-09T14:28:09.549Z,102160.34
2022-10-09T14:30:43.604Z,102157.59
2022-10-09T14:33:10.389Z,102152.47
2022-10-09T14:35:37.118Z,102150.38
2022-10-09T14:38:03.643Z,102144.81
2022-10-09T14:40:30.117Z,102147.75
2022-10-09T14:42:56.633Z,102146.31
2022-10-09T14:45:23.107Z,102136.75
2022-10-09T14:47:49.592Z,102135.41
2022-10-09T14:50:16.152Z,102141.44
2022-10-09T14:52:42.690Z,102130.69
2022-10-09T14:55:09.372Z,102130.69
2022-10-09T14:57:35.976Z,102129.25
2022-10-09T15:00:04.719Z,102120.88
2022-10-09T15:02:31.315Z,102119.03
2022-10-09T15:04:57.838Z,102115.78
2022-10-09T15:07:24.608Z,102108.91
2022-10-09T15:09:51.065Z,102115.19
2022-10-09T15:12:17.528Z,102114.28
2022-10-09T15:14:44.016Z,102099.34
2022-10-09T15:17:10.523Z,102100.69
2022-10-09T15:19:37.767Z,102109.75
2022-10-09T15:22:04.749Z,102103.44
2022-10-09T15:24:31.261Z,102092.03
2022-10-09T15:26:57.898Z,102091.19
2022-10-09T15:29:24.715Z,102086.53
2022-10-09T15:31:51.864Z,102089.03
2022-10-09T15:34:19.221Z,102081.88
2022-10-09T15:36:46.319Z,102080.00
2022-10-09T15:39:14.327Z,102068.16
2022-10-09T15:41:42.366Z,102067.34
2022-10-09T15:44:15.785Z,102062.09
2022-10-09T15:46:42.550Z,102063.13
2022-10-09T15:49:09.118Z,102057.88
2022-10-09T15:51:36.097Z,102059.41
2022-10-09T15:54:03.404Z,102062.59
2022-10-09T15:56:30.303Z,102054.81
2022-10-09T15:58:57.904Z,102054.19
2022-10-09T16:01:25.084Z,102048.13
2022-10-09T16:03:52.379Z,102044.75
2022-10-09T16:06:21.400Z,102040.81
2022-10-09T16:08:48.753Z,102038.75
2022-10-09T16:11:20.399Z,102031.56
2022-10-09T16:13:49.996Z,102033.94
2022-10-09T16:16:21.223Z,102042.84
2022-10-09T16:18:48.524Z,102044.38
2022-10-09T16:21:17.697Z,102033.00
2022-10-09T16:23:44.909Z,102028.91
2022-10-09T16:26:16.894Z,102030.84
2022-10-09T16:28:43.890Z,102039.72
2022-10-09T16:31:18.399Z,102029.47
2022-10-09T16:33:44.942Z,102033.31
2022-10-09T16:36:12.626Z,102032.75
2022-10-09T16:38:40.024Z,102029.22
2022-10-09T16:41:11.947Z,102037.72
2022-10-09T16:43:38.938Z,102038.59
2022-10-09T16:49:06.593Z,102034.34
2022-10-09T16:51:35.628Z,102036.50
2022-10-09T16:54:05.448Z,102034.19
2022-10-09T16:56:34.779Z,102027.09
2022-10-09T16:59:03.853Z,102024.38
2022-10-09T17:01:30.777Z,102030.72
2022-10-09T17:03:58.707Z,102020.50
2022-10-09T17:06:26.402Z,102027.06
2022-10-09T17:08:55.032Z,102031.25
2022-10-09T17:11:22.585Z,102023.53
2022-10-09T17:13:50.145Z,102019.34
2022-10-09T17:16:22.068Z,102011.78
2022-10-09T17:18:49.262Z,102015.81
2022-10-09T17:21:17.929Z,102011.44
2022-10-09T17:23:45.677Z,102008.91
2022-10-09T17:26:18.484Z,102003.69
2022-10-09T17:28:46.263Z,102017.34
2022-10-09T17:31:16.224Z,102006.03
2022-10-09T17:33:46.039Z,102008.56
2022-10-09T17:36:15.433Z,102007.31
2022-10-09T17:38:41.975Z,102005.19
2022-10-09T17:41:11.101Z,101998.06
2022-10-09T17:43:38.774Z,101997.22
2022-10-09T17:46:06.126Z,101998.03
2022-10-09T17:48:34.133Z,101989.00
2022-10-09T17:51:03.651Z,101988.78
2022-10-09T17:53:31.251Z,101986.69
2022-10-09T17:56:02.990Z,101986.25
2022-10-09T17:58:31.099Z,101984.56
2022-10-09T18:00:57.687Z,101985.00
2022-10-09T18:03:24.425Z,101983.31
2022-10-09T18:05:51.426Z,101977.63
2022-10-09T18:08:19.171Z,101974.69
2022-10-09T18:10:46.391Z,101975.28
2022-10-09T18:13:13.002Z,101964.38
2022-10-09T18:15:42.095Z,101968.56
2022-10-09T18:18:10.268Z,101973.59
2022-10-09T18:20:38.466Z,101971.91
2022-10-09T18:23:05.414Z,101977.13
2022-10-09T18:25:32.410Z,101972.31
2022-10-09T18:27:58.997Z,101961.34
2022-10-09T18:30:26.062Z,101968.06
2022-10-09T18:32:52.852Z,101963.22
2022-10-09T18:35:19.725Z,101963.44
2022-10-09T18:37:46.314Z,101952.94
2022-10-09T18:40:14.082Z,101964.25
2022-10-09T18:42:40.667Z,101949.38
2022-10-09T18:45:09.089Z,101959.81
2022-10-09T18:47:36.082Z,101955.81
2022-10-09T18:50:08.025Z,101948.47
2022-10-09T18:52:37.342Z,101955.38
2022-10-09T18:55:06.215Z,101944.84
2022-10-09T18:57:34.231Z,101949.84
2022-10-09T19:00:01.852Z,101949.63
2022-10-09T19:02:28.396Z,101946.66
2022-10-09T19:04:54.994Z,101950.84
2022-10-09T19:07:21.764Z,101944.31
2022-10-09T19:09:53.584Z,101940.94
2022-10-09T19:12:23.310Z,101937.16
2022-10-09T19:14:49.888Z,101937.53
2022-10-09T19:17:16.445Z,101931.69
2022-10-09T19:19:43.030Z,101926.00
2022-10-09T19:22:14.116Z,101917.19
2022-10-09T19:24:42.366Z,101911.09
2022-10-09T19:27:09.447Z,101914.00
2022-10-09T19:29:36.056Z,101912.75
2022-10-09T19:32:02.769Z,101910.22
2022-10-09T19:34:29.781Z,101911.63
2022-10-09T19:36:56.372Z,101900.50
2022-10-09T19:39:22.920Z,101900.91
2022-10-09T19:41:51.087Z,101898.59
2022-10-09T19:44:18.044Z,101895.22
2022-10-09T19:46:45.291Z,101889.97
2022-10-09T19:49:12.517Z,101891.00
2022-10-09T19:51:39.710Z,101888.50
2022-10-09T19:54:07.949Z,101887.84
2022-10-09T19:56:35.316Z,101889.06
2022-10-09T19:59:04.549Z,101890.31
2022-10-09T20:01:35.266Z,101886.97
2022-10-09T20:04:05.695Z,101881.91
2022-10-09T20:06:32.364Z,101886.06
2022-10-09T20:08:58.915Z,101886.06
2022-10-09T20:11:26.277Z,101877.91
2022-10-09T20:13:55.992Z,101880.19
2022-10-09T20:16:24.732Z,101883.09
2022-10-09T20:18:51.921Z,101883.31
2022-10-09T20:21:18.643Z,101878.06
2022-10-09T20:23:45.742Z,101877.41
2022-10-09T20:26:18.368Z,101876.78
2022-10-09T20:28:46.309Z,101874.44
2022-10-09T20:31:19.431Z,101874.84
2022-10-09T20:33:47.424Z,101874.00
2022-10-09T20:36:23.508Z,101869.41
2022-10-09T20:38:50.415Z,101862.50
2022-10-09T20:41:17.881Z,101859.13
2022-10-09T20:43:45.003Z,101859.53
2022-10-09T20:46:14.685Z,101863.06
2022-10-09T20:48:42.740Z,101856.16
2022-10-09T20:51:09.949Z,101853.63
2022-10-09T20:53:36.784Z,101859.28
2022-10-09T20:56:09.243Z,101856.72
2022-10-09T20:58:36.317Z,101862.38
2022-10-09T21:01:08.139Z,101849.63
2022-10-09T21:03:35.883Z,101840.25
2022-10-09T21:06:04.344Z,101841.06
2022-10-09T21:08:31.321Z,101842.31
2022-10-09T21:10:58.345Z,101842.97
2022-10-09T21:13:24.820Z,101839.38
2022-10-09T21:15:51.441Z,101846.50
2022-10-09T21:18:19.363Z,101839.00
2022-10-09T21:20:47.270Z,101832.72
2022-10-09T21:23:16.656Z,101830.22
2022-10-09T21:25:47.928Z,101831.03
2022-10-09T21:28:14.846Z,101815.59
2022-10-09T21:30:41.910Z,101816.41
2022-10-09T21:33:09.515Z,101829.81
2022-10-09T21:35:44.224Z,101822.97
2022-10-09T21:38:13.787Z,101822.56
2022-10-09T21:40:41.225Z,101817.78
2022-10-09T21:43:08.360Z,101816.09
2022-10-09T21:45:34.989Z,101816.09
2022-10-09T21:48:01.624Z,101816.09
2022-10-09T21:50:28.514Z,101805.22
2022-10-09T21:52:55.067Z,101803.94
2022-10-09T21:55:21.635Z,101805.59
2022-10-09T21:57:48.406Z,101797.63
2022-10-09T22:00:15.135Z,101792.19
2022-10-09T22:02:41.832Z,101793.44
2022-10-09T22:05:08.843Z,101787.38
2022-10-09T22:07:35.954Z,101782.13
2022-10-09T22:10:02.942Z,101780.88
2022-10-09T22:12:29.461Z,101781.94
2022-10-09T22:14:56.530Z,101780.25
2022-10-09T22:17:23.256Z,101779.22
2022-10-09T22:19:49.848Z,101775.84
2022-10-09T22:22:16.897Z,101768.94
2022-10-09T22:24:43.747Z,101767.91
2022-10-09T22:27:10.301Z,101763.31
2022-10-09T22:29:38.293Z,101769.97
2022-10-09T22:32:05.394Z,101766.63
2022-10-09T22:34:32.072Z,101762.84
2022-10-09T22:36:58.608Z,101757.81
2022-10-09T22:39:25.141Z,101751.56
2022-10-09T22:41:51.624Z,101749.88
2022-10-09T22:44:18.206Z,101749.44
2022-10-09T22:46:45.152Z,101745.88
2022-10-09T22:49:14.655Z,101746.06
2022-10-09T22:51:41.607Z,101748.97
2022-10-09T22:54:08.609Z,101739.56
2022-10-09T22:56:41.005Z,101734.31
2022-10-09T22:59:08.977Z,101732.63
2022-10-09T23:01:40.407Z,101726.38
2022-10-09T23:04:14.055Z,101721.97
2022-10-09T23:06:41.611Z,101726.38
2022-10-09T23:09:10.912Z,101716.53
2022-10-09T23:11:37.393Z,101721.31
2022-10-09T23:14:04.418Z,101716.91
2022-10-09T23:16:31.615Z,101704.19
2022-10-09T23:19:04.150Z,101706.06
2022-10-09T23:21:33.326Z,101692.47
2022-10-09T23:24:00.012Z,101686.22
2022-10-09T23:26:29.380Z,101687.44
2022-10-09T23:29:01.962Z,101684.72
2022-10-09T23:31:29.235Z,101682.22
2022-10-09T23:33:56.668Z,101680.34
2022-10-09T23:36:26.332Z,101681.78
2022-10-09T23:38:53.443Z,101676.53
2022-10-09T23:41:22.468Z,101672.97
2022-10-09T23:43:49.978Z,101670.25
2022-10-09T23:46:19.510Z,101662.31
2022-10-09T23:48:47.198Z,101658.13
2022-10-09T23:51:14.561Z,101660.84
2022-10-09T23:53:42.442Z,101649.53
2022-10-09T23:56:26.501Z,101652.06
2022-10-09T23:58:54.680Z,101642.22
